createdAt,value
2022-08-03T00:00:24.225Z,2.05
2022-08-03T00:02:50.824Z,1.98
2022-08-03T00:05:17.365Z,1.60
2022-08-03T00:07:43.914Z,1.60
2022-08-03T00:10:12.597Z,1.80
2022-08-03T00:12:39.142Z,1.90
2022-08-03T00:15:10.423Z,1.70
2022-08-03T00:17:51.981Z,1.88
2022-08-03T00:20:19.791Z,2.08
2022-08-03T00:22:46.507Z,1.90
2022-08-03T00:25:13.015Z,1.70
2022-08-03T00:27:39.501Z,1.60
2022-08-03T00:30:07.240Z,1.70
2022-08-03T00:32:33.852Z,1.83
2022-08-03T00:35:00.359Z,1.60
2022-08-03T00:37:40.628Z,1.90
2022-08-03T00:40:10.669Z,1.67
2022-08-03T00:42:47.156Z,1.95
2022-08-03T00:45:13.630Z,2.05
2022-08-03T00:47:40.141Z,2.10
2022-08-03T00:50:06.914Z,1.92
2022-08-03T00:52:34.823Z,2.00
2022-08-03T00:55:03.053Z,1.80
2022-08-03T00:57:32.105Z,2.30
2022-08-03T01:00:02.478Z,2.05
2022-08-03T01:02:29.484Z,2.45
2022-08-03T01:04:56.472Z,1.70
2022-08-03T01:07:41.355Z,1.90
2022-08-03T01:10:24.198Z,2.10
2022-08-03T01:14:01.675Z,2.08
2022-08-03T01:16:15.487Z,1.98
2022-08-03T01:19:02.455Z,2.10
2022-08-03T01:21:33.940Z,2.03
2022-08-03T01:24:42.445Z,2.42
2022-08-03T01:27:17.846Z,2.03
2022-08-03T01:30:03.965Z,2.22
2022-08-03T01:32:58.714Z,2.40
2022-08-03T01:35:38.606Z,2.30
2022-08-03T01:38:15.402Z,2.20
2022-08-03T01:40:44.563Z,1.80
2022-08-03T01:43:15.442Z,2.28
2022-08-03T01:46:04.128Z,2.10
2022-08-03T01:52:40.493Z,2.22
2022-08-03T01:55:09.901Z,2.70
2022-08-03T01:58:04.822Z,2.55
2022-08-03T02:00:27.021Z,2.42
2022-08-03T02:02:56.042Z,2.20
2022-08-03T02:05:23.681Z,2.28
2022-08-03T02:07:51.664Z,1.90
2022-08-03T02:10:34.917Z,2.50
2022-08-03T02:13:04.071Z,2.20
2022-08-03T02:15:33.453Z,2.13
2022-08-03T02:18:01.981Z,2.50
2022-08-03T02:20:29.686Z,2.03
2022-08-03T02:22:56.185Z,2.05
2022-08-03T02:25:23.565Z,2.33
2022-08-03T02:27:55.613Z,2.13
2022-08-03T02:30:29.672Z,2.05
2022-08-03T02:32:57.904Z,2.10
2022-08-03T02:35:26.410Z,2.38
2022-08-03T02:38:01.301Z,2.55
2022-08-03T02:40:29.287Z,2.20
2022-08-03T02:42:59.643Z,2.65
2022-08-03T02:45:28.743Z,2.45
2022-08-03T02:48:04.137Z,2.30
2022-08-03T02:50:32.114Z,2.45
2022-08-03T02:52:59.707Z,2.28
2022-08-03T02:55:27.367Z,2.47
2022-08-03T02:57:55.551Z,2.13
2022-08-03T03:00:27.412Z,2.00
2022-08-03T03:02:56.848Z,2.50
2022-08-03T03:05:54.712Z,2.25
2022-08-03T03:08:18.500Z,2.67
2022-08-03T03:10:46.559Z,2.43
2022-08-03T03:13:15.886Z,2.17
2022-08-03T03:15:44.965Z,2.45
2022-08-03T03:18:12.924Z,2.40
2022-08-03T03:20:40.889Z,2.22
2022-08-03T03:23:11.994Z,2.47
2022-08-03T03:25:38.687Z,2.20
2022-08-03T03:28:06.761Z,2.25
2022-08-03T03:30:34.193Z,2.35
2022-08-03T03:33:00.866Z,2.20
2022-08-03T03:35:27.864Z,2.22
2022-08-03T03:37:54.603Z,2.25
2022-08-03T03:40:21.957Z,2.60
2022-08-03T03:42:49.575Z,2.30
2022-08-03T03:45:19.538Z,1.90
2022-08-03T03:47:46.433Z,2.58
2022-08-03T03:50:13.154Z,2.30
2022-08-03T03:52:39.751Z,2.42
2022-08-03T03:55:06.815Z,2.28
2022-08-03T03:57:34.406Z,2.25
2022-08-03T04:00:00.896Z,2.33
2022-08-03T04:02:27.587Z,2.55
2022-08-03T04:05:12.906Z,2.50
2022-08-03T04:08:10.466Z,2.13
2022-08-03T04:10:59.872Z,2.50
2022-08-03T04:13:34.106Z,2.38
2022-08-03T04:16:01.843Z,2.40
2022-08-03T04:18:31.321Z,2.30
2022-08-03T04:21:01.511Z,2.40
2022-08-03T04:23:30.729Z,2.28
2022-08-03T04:26:00.448Z,2.63
2022-08-03T04:28:31.052Z,2.13
2022-08-03T04:31:01.354Z,2.42
2022-08-03T04:33:31.326Z,2.50
2022-08-03T04:36:03.192Z,3.08
2022-08-03T04:38:36.618Z,2.30
2022-08-03T04:41:03.772Z,2.45
2022-08-03T04:43:33.464Z,2.47
2022-08-03T04:46:01.447Z,2.55
2022-08-03T04:48:28.482Z,2.40
2022-08-03T04:50:55.093Z,2.58
2022-08-03T04:53:21.730Z,2.30
2022-08-03T04:55:48.382Z,2.50
2022-08-03T04:58:14.886Z,2.25
2022-08-03T05:00:42.277Z,2.60
2022-08-03T05:03:20.468Z,2.15
2022-08-03T05:06:09.945Z,2.42
2022-08-03T05:08:46.277Z,2.33
2022-08-03T05:11:16.599Z,2.53
2022-08-03T05:13:44.146Z,2.72
2022-08-03T05:16:11.860Z,3.10
2022-08-03T05:18:38.364Z,2.30
2022-08-03T05:21:05.061Z,2.45
2022-08-03T05:23:31.822Z,2.35
2022-08-03T05:25:58.343Z,2.70
2022-08-03T05:28:24.882Z,2.30
2022-08-03T05:30:51.400Z,2.50
2022-08-03T05:33:17.904Z,2.45
2022-08-03T05:36:01.382Z,2.20
2022-08-03T05:38:34.809Z,2.30
2022-08-03T05:41:21.187Z,2.08
2022-08-03T05:43:49.970Z,2.60
2022-08-03T05:46:16.509Z,2.65
2022-08-03T05:48:43.450Z,2.28
2022-08-03T05:51:11.844Z,2.50
2022-08-03T05:53:42.540Z,2.20
2022-08-03T05:56:13.651Z,2.00
2022-08-03T05:58:44.040Z,2.05
2022-08-03T06:01:10.632Z,2.10
2022-08-03T06:03:37.249Z,2.72
2022-08-03T06:06:03.926Z,2.08
2022-08-03T06:08:30.419Z,2.17
2022-08-03T06:10:56.942Z,2.50
2022-08-03T06:13:23.469Z,2.55
2022-08-03T06:15:50.072Z,2.35
2022-08-03T06:18:16.670Z,2.38
2022-08-03T06:20:43.329Z,2.10
2022-08-03T06:23:16.121Z,2.45
2022-08-03T06:25:44.883Z,2.10
2022-08-03T06:31:02.006Z,2.35
2022-08-03T06:34:31.325Z,2.28
2022-08-03T06:36:15.643Z,2.00
2022-08-03T06:38:42.306Z,2.08
2022-08-03T06:41:08.844Z,1.70
2022-08-03T06:43:37.655Z,1.60
2022-08-03T06:46:05.459Z,1.85
2022-08-03T06:48:32.528Z,1.70
2022-08-03T06:50:59.258Z,1.90
2022-08-03T06:53:25.875Z,1.70
2022-08-03T06:55:55.028Z,1.50
2022-08-03T06:58:22.541Z,1.45
2022-08-03T07:00:49.389Z,1.30
2022-08-03T07:03:16.408Z,1.33
2022-08-03T07:05:43.510Z,1.10
2022-08-03T07:08:10.338Z,1.40
2022-08-03T07:10:37.209Z,1.23
2022-08-03T07:13:04.855Z,1.35
2022-08-03T07:15:54.361Z,1.23
2022-08-03T07:18:18.182Z,1.58
2022-08-03T07:20:56.878Z,1.30
2022-08-03T07:23:23.402Z,1.17
2022-08-03T07:25:50.811Z,1.38
2022-08-03T07:28:17.786Z,1.10
2022-08-03T07:30:44.380Z,1.20
2022-08-03T07:33:11.181Z,1.13
2022-08-03T07:35:37.753Z,1.20
2022-08-03T07:38:05.425Z,1.10
2022-08-03T07:40:32.563Z,1.20
2022-08-03T07:43:00.158Z,1.15
2022-08-03T07:45:27.065Z,1.17
2022-08-03T07:47:54.316Z,1.10
2022-08-03T07:50:21.812Z,1.33
2022-08-03T07:52:48.661Z,1.00
2022-08-03T07:55:23.334Z,1.08
2022-08-03T07:58:24.009Z,1.10
2022-08-03T08:00:53.003Z,1.10
2022-08-03T08:03:19.945Z,1.25
2022-08-03T08:05:46.741Z,1.25
2022-08-03T08:08:13.271Z,1.10
2022-08-03T08:10:39.868Z,1.25
2022-08-03T08:13:06.469Z,1.10
2022-08-03T08:15:33.090Z,1.00
2022-08-03T08:18:01.286Z,1.02
2022-08-03T08:20:31.720Z,1.20
2022-08-03T08:23:12.154Z,1.10
2022-08-03T08:25:51.979Z,1.20
2022-08-03T08:28:29.508Z,1.25
2022-08-03T08:30:59.140Z,1.40
2022-08-03T08:33:25.899Z,1.20
2022-08-03T08:35:53.433Z,1.27
2022-08-03T08:38:20.104Z,1.35
2022-08-03T08:40:47.689Z,1.20
2022-08-03T08:43:14.200Z,1.40
2022-08-03T08:45:41.527Z,1.10
2022-08-03T08:48:10.610Z,1.30
2022-08-03T08:50:38.715Z,1.27
2022-08-03T08:53:09.824Z,1.20
2022-08-03T08:55:59.131Z,1.30
2022-08-03T08:58:29.657Z,1.27
2022-08-03T09:00:56.200Z,1.33
2022-08-03T09:03:30.404Z,1.23
2022-08-03T09:06:00.423Z,1.30
2022-08-03T09:08:26.934Z,1.13
2022-08-03T09:10:53.454Z,1.30
2022-08-03T09:13:19.965Z,1.38
2022-08-03T09:16:00.712Z,1.08
2022-08-03T09:18:32.309Z,1.30
2022-08-03T09:21:30.800Z,1.20
2022-08-03T09:24:02.946Z,1.20
2022-08-03T09:26:31.309Z,1.33
2022-08-03T09:29:11.232Z,1.40
2022-08-03T09:31:43.046Z,1.40
2022-08-03T09:34:16.310Z,1.23
2022-08-03T09:36:45.664Z,1.10
2022-08-03T09:39:19.702Z,1.15
2022-08-03T09:42:09.171Z,1.20
2022-08-03T09:44:43.461Z,1.27
2022-08-03T09:47:12.460Z,1.23
2022-08-03T09:49:41.571Z,1.60
2022-08-03T09:52:32.193Z,1.10
2022-08-03T09:56:30.971Z,1.30
2022-08-03T09:58:05.906Z,1.48
2022-08-03T10:00:32.588Z,1.35
2022-08-03T10:03:05.219Z,1.30
2022-08-03T10:05:33.199Z,1.13
2022-08-03T10:07:59.674Z,1.00
2022-08-03T10:10:31.740Z,1.48
2022-08-03T10:13:00.266Z,1.20
2022-08-03T10:16:24.079Z,1.40
2022-08-03T10:18:14.251Z,1.40
2022-08-03T10:20:53.379Z,1.23
2022-08-03T10:23:20.114Z,1.25
2022-08-03T10:25:48.448Z,1.45
2022-08-03T10:28:19.369Z,1.30
2022-08-03T10:30:51.155Z,1.40
2022-08-03T10:33:51.695Z,1.08
2022-08-03T10:36:18.282Z,1.13
2022-08-03T10:38:52.691Z,1.35
2022-08-03T10:41:26.619Z,1.10
2022-08-03T10:43:58.583Z,1.27
2022-08-03T10:46:27.280Z,1.20
2022-08-03T10:48:56.527Z,1.10
2022-08-03T10:51:24.093Z,1.08
2022-08-03T10:53:55.290Z,0.90
2022-08-03T10:56:53.441Z,1.00
2022-08-03T10:59:45.528Z,1.30
2022-08-03T11:02:14.150Z,1.30
2022-08-03T11:04:41.841Z,1.00
2022-08-03T11:07:21.737Z,1.27
2022-08-03T11:09:50.152Z,0.88
2022-08-03T11:12:30.101Z,1.05
2022-08-03T11:15:08.555Z,1.05
2022-08-03T11:17:46.150Z,0.90
2022-08-03T11:20:57.490Z,0.90
2022-08-03T11:24:05.648Z,1.23
2022-08-03T11:26:33.992Z,1.20
2022-08-03T11:29:53.674Z,1.10
2022-08-03T11:32:38.650Z,1.20
2022-08-03T11:35:24.087Z,1.30
2022-08-03T11:38:05.072Z,1.30
2022-08-03T11:40:46.193Z,1.10
2022-08-03T11:43:31.595Z,1.00
2022-08-03T11:48:38.187Z,1.00
2022-08-03T11:51:07.122Z,1.00
2022-08-03T11:53:42.041Z,1.05
2022-08-03T11:59:01.689Z,1.00
2022-08-03T12:01:43.468Z,1.25
2022-08-03T12:04:11.430Z,0.82
2022-08-03T12:06:55.761Z,1.30
2022-08-03T12:09:22.522Z,1.05
2022-08-03T12:11:59.616Z,1.20
2022-08-03T12:14:49.729Z,1.30
2022-08-03T12:17:16.123Z,1.20
2022-08-03T12:19:43.506Z,1.00
2022-08-03T12:22:10.307Z,0.95
2022-08-03T12:24:46.868Z,1.05
2022-08-03T12:27:23.555Z,1.10
2022-08-03T12:29:58.975Z,1.17
2022-08-03T12:32:29.531Z,1.08
2022-08-03T12:35:01.024Z,1.02
2022-08-03T12:37:28.607Z,1.10
2022-08-03T12:40:07.899Z,1.00
2022-08-03T12:42:38.836Z,1.13
2022-08-03T12:45:22.123Z,0.82
2022-08-03T12:48:00.990Z,1.17
2022-08-03T12:50:32.004Z,1.13
2022-08-03T12:53:00.402Z,0.93
2022-08-03T12:55:57.061Z,1.20
2022-08-03T12:58:35.000Z,1.00
2022-08-03T13:01:05.182Z,1.10
2022-08-03T13:03:49.965Z,1.10
2022-08-03T13:06:22.154Z,0.95
2022-08-03T13:08:49.979Z,1.15
2022-08-03T13:11:23.476Z,0.90
2022-08-03T13:14:10.031Z,1.10
2022-08-03T13:16:43.223Z,1.10
2022-08-03T13:19:15.729Z,1.00
2022-08-03T13:21:53.627Z,1.30
2022-08-03T13:24:30.585Z,1.00
2022-08-03T13:26:58.768Z,1.00
2022-08-03T13:29:25.291Z,0.90
2022-08-03T13:31:52.509Z,0.90
2022-08-03T13:34:22.923Z,1.00
2022-08-03T13:39:57.795Z,0.80
2022-08-03T13:42:25.740Z,0.90
2022-08-03T13:44:52.391Z,1.10
2022-08-03T13:47:19.653Z,1.15
2022-08-03T13:49:59.803Z,0.90
2022-08-03T13:52:33.533Z,0.98
2022-08-03T13:55:01.358Z,1.00
2022-08-03T13:58:03.796Z,1.40
2022-08-03T14:00:27.895Z,1.10
2022-08-03T14:03:09.499Z,1.20
2022-08-03T14:05:40.226Z,1.30
2022-08-03T14:08:07.360Z,1.02
2022-08-03T14:10:36.332Z,1.30
2022-08-03T14:13:04.030Z,1.10
2022-08-03T14:15:30.682Z,1.20
2022-08-03T14:17:58.398Z,1.10
2022-08-03T14:20:37.150Z,0.90
2022-08-03T14:23:06.873Z,1.00
2022-08-03T14:25:43.266Z,1.20
2022-08-03T14:28:17.954Z,1.40
2022-08-03T14:30:44.628Z,1.42
2022-08-03T14:33:11.110Z,0.88
2022-08-03T14:35:37.637Z,0.98
2022-08-03T14:38:04.169Z,0.93
2022-08-03T14:40:30.669Z,0.88
2022-08-03T14:42:57.327Z,1.02
2022-08-03T14:45:23.893Z,1.20
2022-08-03T14:50:32.674Z,1.30
2022-08-03T14:50:43.174Z,1.30
2022-08-03T14:53:12.582Z,1.00
2022-08-03T14:55:50.075Z,1.00
2022-08-03T14:58:22.436Z,1.30
2022-08-03T15:00:50.546Z,3.60
2022-08-03T15:03:20.462Z,2.05
2022-08-03T15:05:47.204Z,1.30
2022-08-03T15:08:13.707Z,1.13
2022-08-03T15:10:43.950Z,1.20
2022-08-03T15:13:15.079Z,1.45
2022-08-03T15:15:41.858Z,1.50
2022-08-03T15:18:09.460Z,1.55
2022-08-03T15:20:44.400Z,1.30
2022-08-03T15:23:14.016Z,1.25
2022-08-03T15:26:28.903Z,1.33
2022-08-03T15:28:27.147Z,1.30
2022-08-03T15:30:53.842Z,1.23
2022-08-03T15:33:20.627Z,2.80
2022-08-03T15:35:47.659Z,1.50
2022-08-03T15:38:14.658Z,1.60
2022-08-03T15:40:41.238Z,1.70
2022-08-03T15:43:08.015Z,1.10
2022-08-03T15:45:35.311Z,1.40
2022-08-03T15:48:05.482Z,1.45
2022-08-03T15:50:32.040Z,1.33
2022-08-03T15:53:01.418Z,1.40
2022-08-03T15:55:28.038Z,1.33
2022-08-03T15:59:03.267Z,1.40
2022-08-03T16:00:42.606Z,1.45
2022-08-03T16:03:09.734Z,1.40
2022-08-03T16:05:36.618Z,1.17
2022-08-03T16:08:05.125Z,1.63
2022-08-03T16:10:33.645Z,1.35
2022-08-03T16:13:00.446Z,1.90
2022-08-03T16:15:27.633Z,1.67
2022-08-03T16:17:54.382Z,1.48
2022-08-03T16:20:33.972Z,1.40
2022-08-03T16:23:11.072Z,1.20
2022-08-03T16:25:42.428Z,1.60
2022-08-03T16:28:14.190Z,1.52
2022-08-03T16:30:43.093Z,2.05
2022-08-03T16:33:11.229Z,1.98
2022-08-03T16:35:38.413Z,1.50
2022-08-03T16:38:09.739Z,1.50
2022-08-03T16:40:37.784Z,1.67
2022-08-03T16:43:18.379Z,1.90
2022-08-03T16:45:46.560Z,1.42
2022-08-03T16:48:14.521Z,1.45
2022-08-03T16:50:41.246Z,1.60
2022-08-03T16:53:09.602Z,1.77
2022-08-03T16:55:48.728Z,1.50
2022-08-03T16:58:19.555Z,1.60
2022-08-03T17:01:01.685Z,1.30
2022-08-03T17:03:42.685Z,1.50
2022-08-03T17:06:25.430Z,1.70
2022-08-03T17:09:00.603Z,1.95
2022-08-03T17:11:27.223Z,1.52
2022-08-03T17:13:59.434Z,1.40
2022-08-03T17:16:26.187Z,1.65
2022-08-03T17:19:01.961Z,1.55
2022-08-03T17:21:32.441Z,1.38
2022-08-03T17:24:12.537Z,1.67
2022-08-03T17:26:45.998Z,1.50
2022-08-03T17:29:23.138Z,1.50
2022-08-03T17:31:53.006Z,1.25
2022-08-03T17:34:20.756Z,1.20
2022-08-03T17:37:11.978Z,1.25
2022-08-03T17:39:58.097Z,1.27
2022-08-03T17:42:30.242Z,1.20
2022-08-03T17:44:58.589Z,1.52
2022-08-03T17:47:41.404Z,1.48
2022-08-03T17:50:25.302Z,1.30
2022-08-03T17:53:07.181Z,1.58
2022-08-03T17:55:56.496Z,1.50
2022-08-03T17:58:43.892Z,1.50
2022-08-03T18:02:02.673Z,1.30
2022-08-03T18:04:29.770Z,1.40
2022-08-03T18:06:59.455Z,1.15
2022-08-03T18:10:05.183Z,1.38
2022-08-03T18:12:27.048Z,6.72
2022-08-03T18:15:01.469Z,3.60
2022-08-03T18:17:55.200Z,1.73
2022-08-03T18:20:34.813Z,1.52
2022-08-03T18:23:08.649Z,1.58
2022-08-03T18:25:45.502Z,1.60
2022-08-03T18:28:18.486Z,1.40
2022-08-03T18:30:54.277Z,1.70
2022-08-03T18:34:16.660Z,1.70
2022-08-03T18:36:21.653Z,1.42
2022-08-03T18:38:58.477Z,1.23
2022-08-03T18:41:32.979Z,2.22
2022-08-03T18:44:07.181Z,1.60
2022-08-03T18:49:43.294Z,1.58
2022-08-03T18:52:21.560Z,1.85
2022-08-03T18:55:19.754Z,1.48
2022-08-03T18:58:06.841Z,1.73
2022-08-03T19:00:54.042Z,1.85
2022-08-03T19:03:43.455Z,2.65
2022-08-03T19:06:20.297Z,2.50
2022-08-03T19:09:02.808Z,1.98
2022-08-03T19:12:14.066Z,1.60
2022-08-03T19:14:34.293Z,1.70
2022-08-03T19:17:07.601Z,1.90
2022-08-03T19:19:44.131Z,1.65
2022-08-03T19:25:02.288Z,1.83
2022-08-03T19:27:31.129Z,1.65
2022-08-03T19:30:03.762Z,1.88
2022-08-03T19:32:33.595Z,1.60
2022-08-03T19:35:04.415Z,2.45
2022-08-03T19:37:38.304Z,2.47
2022-08-03T19:42:44.377Z,3.08
2022-08-03T19:45:15.419Z,2.50
2022-08-03T19:47:51.364Z,2.20
2022-08-03T19:50:19.949Z,1.80
2022-08-03T19:52:48.189Z,1.70
2022-08-03T19:55:17.651Z,1.83
2022-08-03T19:57:49.062Z,1.75
2022-08-03T20:00:19.549Z,2.00
2022-08-03T20:02:47.266Z,1.92
2022-08-03T20:05:18.419Z,2.65
2022-08-03T20:07:47.618Z,2.65
2022-08-03T20:10:16.576Z,2.42
2022-08-03T20:12:44.879Z,2.28
2022-08-03T20:15:11.638Z,2.90
2022-08-03T20:17:54.849Z,2.33
2022-08-03T20:20:33.413Z,2.55
2022-08-03T20:23:06.990Z,2.90
2022-08-03T20:25:39.530Z,3.00
2022-08-03T20:28:30.650Z,2.83
2022-08-03T20:30:57.605Z,2.88
2022-08-03T20:33:27.710Z,2.22
2022-08-03T20:36:12.505Z,2.13
2022-08-03T20:38:47.098Z,2.13
2022-08-03T20:41:15.533Z,2.60
2022-08-03T20:43:42.446Z,3.35
2022-08-03T20:46:32.078Z,3.65
2022-08-03T20:48:57.263Z,3.30
2022-08-03T20:51:50.627Z,2.05
2022-08-03T20:54:29.796Z,1.80
2022-08-03T20:57:04.354Z,1.60
2022-08-03T21:02:39.857Z,1.77
2022-08-03T21:05:09.320Z,1.73
2022-08-03T21:08:04.836Z,1.40
2022-08-03T21:10:33.563Z,1.65
2022-08-03T21:13:10.856Z,3.17
2022-08-03T21:16:11.593Z,1.77
2022-08-03T21:18:44.841Z,1.80
2022-08-03T21:21:16.356Z,2.10
2022-08-03T21:23:47.781Z,2.45
2022-08-03T21:26:20.896Z,2.30
2022-08-03T21:28:52.068Z,2.35
2022-08-03T21:31:24.767Z,2.20
2022-08-03T21:34:05.261Z,1.88
2022-08-03T21:36:34.441Z,1.73
2022-08-03T21:39:02.859Z,2.03
2022-08-03T21:41:32.299Z,1.80
2022-08-03T21:44:00.337Z,2.20
2022-08-03T21:46:30.274Z,2.03
2022-08-03T21:50:07.079Z,1.83
2022-08-03T21:51:50.466Z,1.67
2022-08-03T21:54:20.092Z,2.03
2022-08-03T21:56:48.298Z,1.73
2022-08-03T21:59:20.742Z,1.65
2022-08-03T22:01:49.397Z,1.80
2022-08-03T22:04:42.671Z,1.52
2022-08-03T22:07:09.572Z,1.90
2022-08-03T22:09:36.906Z,1.67
2022-08-03T22:12:04.218Z,1.70
2022-08-03T22:14:32.919Z,1.50
2022-08-03T22:17:00.312Z,2.80
2022-08-03T22:19:26.921Z,2.78
2022-08-03T22:21:54.443Z,2.95
2022-08-03T22:24:24.130Z,2.85
2022-08-03T22:27:09.939Z,2.30
2022-08-03T22:29:36.921Z,2.00
2022-08-03T22:32:03.818Z,1.73
2022-08-03T22:34:30.895Z,2.08
2022-08-03T22:37:02.650Z,1.70
2022-08-03T22:39:30.192Z,1.60
2022-08-03T22:41:58.950Z,1.60
2022-08-03T22:44:29.544Z,1.70
2022-08-03T22:46:56.452Z,1.40
2022-08-03T22:49:23.679Z,1.67
2022-08-03T22:51:53.809Z,1.85
2022-08-03T22:54:20.876Z,1.77
2022-08-03T22:56:47.727Z,1.88
2022-08-03T22:59:40.370Z,1.70
2022-08-03T23:02:20.676Z,1.85
2022-08-03T23:04:54.975Z,2.50
2022-08-03T23:07:30.159Z,2.00
2022-08-03T23:09:58.128Z,2.33
2022-08-03T23:12:25.296Z,2.65
2022-08-03T23:14:55.233Z,2.40
2022-08-03T23:17:27.104Z,1.85
2022-08-03T23:19:55.107Z,2.22
2022-08-03T23:22:30.222Z,2.05
2022-08-03T23:24:59.220Z,1.70
2022-08-03T23:27:27.958Z,1.80
2022-08-03T23:29:58.332Z,1.60
2022-08-03T23:32:29.937Z,1.73
2022-08-03T23:35:18.463Z,2.13
2022-08-03T23:38:10.737Z,1.70
2022-08-03T23:40:33.474Z,1.75
2022-08-03T23:43:01.647Z,1.70
2022-08-03T23:45:31.163Z,1.92
2022-08-03T23:47:57.877Z,1.60
2022-08-03T23:50:24.550Z,1.70
2022-08-03T23:53:09.399Z,2.00
2022-08-03T23:55:39.002Z,1.75
2022-08-03T23:58:20.862Z,1.70
